sensor_id;sensor_type;location;lat;lon;timestamp;P1;durP1;ratioP1;P2;durP2;ratioP2
60665;SDS011;59128;44.642;21.188;2022-10-16T00:00:17;23.60;;;13.25;;
60665;SDS011;59128;44.642;21.188;2022-10-16T00:02:43;17.95;;;9.30;;
60665;SDS011;59128;44.642;21.188;2022-10-16T00:05:09;34.47;;;16.27;;
60665;SDS011;59128;44.642;21.188;2022-10-16T00:07:35;36.97;;;18.45;;
60665;SDS011;59128;44.642;21.188;2022-10-16T00:10:01;31.23;;;15.05;;
60665;SDS011;59128;44.642;21.188;2022-10-16T00:12:28;32.45;;;16.60;;
60665;SDS011;59128;44.642;21.188;2022-10-16T00:14:54;25.65;;;12.95;;
60665;SDS011;59128;44.642;21.188;2022-10-16T00:17:20;63.80;;;28.90;;
60665;SDS011;59128;44.642;21.188;2022-10-16T00:19:46;15.98;;;9.77;;
60665;SDS011;59128;44.642;21.188;2022-10-16T00:22:12;13.10;;;6.65;;
60665;SDS011;59128;44.642;21.188;2022-10-16T00:24:38;28.17;;;14.40;;
60665;SDS011;59128;44.642;21.188;2022-10-16T00:27:04;20.48;;;10.82;;
60665;SDS011;59128;44.642;21.188;2022-10-16T00:29:30;28.35;;;13.93;;
60665;SDS011;59128;44.642;21.188;2022-10-16T00:31:56;22.95;;;12.68;;
60665;SDS011;59128;44.642;21.188;2022-10-16T00:34:22;23.83;;;13.52;;
60665;SDS011;59128;44.642;21.188;2022-10-16T00:36:48;16.00;;;10.25;;
60665;SDS011;59128;44.642;21.188;2022-10-16T00:39:14;49.58;;;23.50;;
60665;SDS011;59128;44.642;21.188;2022-10-16T00:41:40;33.08;;;17.33;;
60665;SDS011;59128;44.642;21.188;2022-10-16T00:46:51;32.05;;;18.50;;
60665;SDS011;59128;44.642;21.188;2022-10-16T00:49:18;23.13;;;12.52;;
60665;SDS011;59128;44.642;21.188;2022-10-16T00:51:45;40.35;;;21.80;;
60665;SDS011;59128;44.642;21.188;2022-10-16T00:54:16;30.83;;;17.35;;
60665;SDS011;59128;44.642;21.188;2022-10-16T00:56:43;18.23;;;10.38;;
60665;SDS011;59128;44.642;21.188;2022-10-16T00:59:14;14.68;;;8.43;;
60665;SDS011;59128;44.642;21.188;2022-10-16T01:01:40;31.67;;;18.58;;
60665;SDS011;59128;44.642;21.188;2022-10-16T01:04:06;19.33;;;12.95;;
60665;SDS011;59128;44.642;21.188;2022-10-16T01:06:36;23.05;;;14.75;;
60665;SDS011;59128;44.642;21.188;2022-10-16T01:14:14;28.88;;;17.75;;
60665;SDS011;59128;44.642;21.188;2022-10-16T01:16:58;17.77;;;12.35;;
60665;SDS011;59128;44.642;21.188;2022-10-16T01:22:01;26.30;;;19.50;;
60665;SDS011;59128;44.642;21.188;2022-10-16T01:32:46;19.40;;;14.85;;
60665;SDS011;59128;44.642;21.188;2022-10-16T01:35:17;26.95;;;18.77;;
60665;SDS011;59128;44.642;21.188;2022-10-16T01:37:40;18.38;;;13.88;;
60665;SDS011;59128;44.642;21.188;2022-10-16T01:40:11;14.57;;;9.82;;
60665;SDS011;59128;44.642;21.188;2022-10-16T01:42:39;45.35;;;23.65;;
60665;SDS011;59128;44.642;21.188;2022-10-16T01:45:06;41.53;;;30.60;;
60665;SDS011;59128;44.642;21.188;2022-10-16T01:47:33;48.63;;;37.03;;
60665;SDS011;59128;44.642;21.188;2022-10-16T01:50:02;28.98;;;20.42;;
60665;SDS011;59128;44.642;21.188;2022-10-16T01:52:29;20.73;;;15.30;;
60665;SDS011;59128;44.642;21.188;2022-10-16T01:54:57;35.25;;;24.48;;
60665;SDS011;59128;44.642;21.188;2022-10-16T01:57:25;28.88;;;21.73;;
60665;SDS011;59128;44.642;21.188;2022-10-16T01:59:52;30.50;;;21.60;;
60665;SDS011;59128;44.642;21.188;2022-10-16T02:02:20;28.67;;;19.10;;
60665;SDS011;59128;44.642;21.188;2022-10-16T02:04:49;32.10;;;20.83;;
60665;SDS011;59128;44.642;21.188;2022-10-16T02:07:17;27.05;;;20.23;;
60665;SDS011;59128;44.642;21.188;2022-10-16T02:09:43;16.52;;;11.25;;
60665;SDS011;59128;44.642;21.188;2022-10-16T02:12:12;44.75;;;32.00;;
60665;SDS011;59128;44.642;21.188;2022-10-16T02:14:39;25.27;;;17.67;;
60665;SDS011;59128;44.642;21.188;2022-10-16T02:17:12;19.48;;;13.93;;
60665;SDS011;59128;44.642;21.188;2022-10-16T02:19:38;20.40;;;15.07;;
60665;SDS011;59128;44.642;21.188;2022-10-16T02:22:06;42.30;;;29.55;;
60665;SDS011;59128;44.642;21.188;2022-10-16T02:24:49;32.22;;;23.80;;
60665;SDS011;59128;44.642;21.188;2022-10-16T02:27:27;18.98;;;14.63;;
60665;SDS011;59128;44.642;21.188;2022-10-16T02:30:19;13.00;;;9.73;;
60665;SDS011;59128;44.642;21.188;2022-10-16T02:32:44;14.00;;;9.00;;
60665;SDS011;59128;44.642;21.188;2022-10-16T02:35:10;55.10;;;38.13;;
60665;SDS011;59128;44.642;21.188;2022-10-16T02:37:37;31.67;;;24.40;;
60665;SDS011;59128;44.642;21.188;2022-10-16T02:40:04;20.25;;;14.90;;
60665;SDS011;59128;44.642;21.188;2022-10-16T02:42:34;13.00;;;8.40;;
60665;SDS011;59128;44.642;21.188;2022-10-16T02:45:00;15.63;;;12.82;;
60665;SDS011;59128;44.642;21.188;2022-10-16T02:47:26;10.63;;;8.68;;
60665;SDS011;59128;44.642;21.188;2022-10-16T02:49:52;14.32;;;8.68;;
60665;SDS011;59128;44.642;21.188;2022-10-16T02:52:18;23.15;;;16.30;;
60665;SDS011;59128;44.642;21.188;2022-10-16T02:54:44;11.60;;;7.68;;
60665;SDS011;59128;44.642;21.188;2022-10-16T02:57:11;45.10;;;34.53;;
60665;SDS011;59128;44.642;21.188;2022-10-16T02:59:37;23.77;;;20.15;;
60665;SDS011;59128;44.642;21.188;2022-10-16T03:02:03;10.45;;;9.32;;
60665;SDS011;59128;44.642;21.188;2022-10-16T03:04:29;29.38;;;23.08;;
60665;SDS011;59128;44.642;21.188;2022-10-16T03:06:55;33.42;;;22.90;;
60665;SDS011;59128;44.642;21.188;2022-10-16T03:09:21;37.60;;;27.23;;
60665;SDS011;59128;44.642;21.188;2022-10-16T03:11:47;20.77;;;16.20;;
60665;SDS011;59128;44.642;21.188;2022-10-16T03:14:13;9.18;;;7.32;;
60665;SDS011;59128;44.642;21.188;2022-10-16T03:16:39;18.15;;;15.43;;
60665;SDS011;59128;44.642;21.188;2022-10-16T03:19:05;8.23;;;5.95;;
60665;SDS011;59128;44.642;21.188;2022-10-16T03:21:31;11.07;;;7.40;;
60665;SDS011;59128;44.642;21.188;2022-10-16T03:23:57;34.53;;;28.75;;
60665;SDS011;59128;44.642;21.188;2022-10-16T03:26:23;9.65;;;8.65;;
60665;SDS011;59128;44.642;21.188;2022-10-16T03:28:49;7.93;;;5.82;;
60665;SDS011;59128;44.642;21.188;2022-10-16T03:31:15;9.25;;;5.82;;
60665;SDS011;59128;44.642;21.188;2022-10-16T03:33:41;5.63;;;4.97;;
60665;SDS011;59128;44.642;21.188;2022-10-16T03:36:07;9.57;;;5.40;;
60665;SDS011;59128;44.642;21.188;2022-10-16T03:38:33;6.30;;;5.00;;
60665;SDS011;59128;44.642;21.188;2022-10-16T03:40:59;7.25;;;4.70;;
60665;SDS011;59128;44.642;21.188;2022-10-16T03:45:51;6.97;;;5.15;;
60665;SDS011;59128;44.642;21.188;2022-10-16T03:48:20;8.05;;;5.50;;
60665;SDS011;59128;44.642;21.188;2022-10-16T03:50:46;6.15;;;4.72;;
60665;SDS011;59128;44.642;21.188;2022-10-16T03:53:13;8.90;;;5.05;;
60665;SDS011;59128;44.642;21.188;2022-10-16T03:55:43;5.57;;;4.80;;
60665;SDS011;59128;44.642;21.188;2022-10-16T03:58:09;9.40;;;5.18;;
60665;SDS011;59128;44.642;21.188;2022-10-16T04:00:35;7.35;;;4.80;;
60665;SDS011;59128;44.642;21.188;2022-10-16T04:03:01;5.07;;;4.60;;
60665;SDS011;59128;44.642;21.188;2022-10-16T04:05:27;10.30;;;5.25;;
60665;SDS011;59128;44.642;21.188;2022-10-16T04:07:53;8.90;;;6.45;;
60665;SDS011;59128;44.642;21.188;2022-10-16T04:10:20;8.82;;;6.15;;
60665;SDS011;59128;44.642;21.188;2022-10-16T04:12:46;7.43;;;5.45;;
60665;SDS011;59128;44.642;21.188;2022-10-16T04:15:12;7.63;;;5.25;;
60665;SDS011;59128;44.642;21.188;2022-10-16T04:17:38;6.63;;;4.90;;
60665;SDS011;59128;44.642;21.188;2022-10-16T04:20:04;6.60;;;5.22;;
60665;SDS011;59128;44.642;21.188;2022-10-16T04:22:30;9.07;;;5.65;;
60665;SDS011;59128;44.642;21.188;2022-10-16T04:24:56;8.25;;;5.07;;
60665;SDS011;59128;44.642;21.188;2022-10-16T04:27:22;6.78;;;5.10;;
60665;SDS011;59128;44.642;21.188;2022-10-16T04:29:48;7.07;;;4.93;;
60665;SDS011;59128;44.642;21.188;2022-10-16T04:32:14;6.72;;;5.35;;
60665;SDS011;59128;44.642;21.188;2022-10-16T04:34:40;7.88;;;6.40;;
60665;SDS011;59128;44.642;21.188;2022-10-16T04:37:06;9.23;;;8.20;;
60665;SDS011;59128;44.642;21.188;2022-10-16T04:39:32;65.20;;;42.80;;
60665;SDS011;59128;44.642;21.188;2022-10-16T04:41:59;69.40;;;47.72;;
60665;SDS011;59128;44.642;21.188;2022-10-16T04:44:25;28.30;;;19.55;;
60665;SDS011;59128;44.642;21.188;2022-10-16T04:46:51;19.15;;;13.13;;
60665;SDS011;59128;44.642;21.188;2022-10-16T04:49:17;25.85;;;16.15;;
60665;SDS011;59128;44.642;21.188;2022-10-16T04:51:43;24.10;;;12.35;;
60665;SDS011;59128;44.642;21.188;2022-10-16T04:54:09;63.85;;;27.63;;
60665;SDS011;59128;44.642;21.188;2022-10-16T04:56:35;20.83;;;12.52;;
60665;SDS011;59128;44.642;21.188;2022-10-16T04:59:08;18.20;;;8.95;;
60665;SDS011;59128;44.642;21.188;2022-10-16T05:01:34;20.73;;;10.32;;
60665;SDS011;59128;44.642;21.188;2022-10-16T05:04:00;67.35;;;46.15;;
60665;SDS011;59128;44.642;21.188;2022-10-16T05:06:26;108.75;;;78.13;;
60665;SDS011;59128;44.642;21.188;2022-10-16T05:08:52;17.52;;;10.35;;
60665;SDS011;59128;44.642;21.188;2022-10-16T05:11:18;13.15;;;7.30;;
60665;SDS011;59128;44.642;21.188;2022-10-16T05:13:44;24.60;;;12.45;;
60665;SDS011;59128;44.642;21.188;2022-10-16T05:16:10;14.25;;;9.05;;
60665;SDS011;59128;44.642;21.188;2022-10-16T05:18:36;15.50;;;8.88;;
60665;SDS011;59128;44.642;21.188;2022-10-16T05:21:02;26.50;;;12.52;;
60665;SDS011;59128;44.642;21.188;2022-10-16T05:23:29;87.32;;;47.63;;
60665;SDS011;59128;44.642;21.188;2022-10-16T05:25:55;59.78;;;24.27;;
60665;SDS011;59128;44.642;21.188;2022-10-16T05:28:23;73.30;;;49.50;;
60665;SDS011;59128;44.642;21.188;2022-10-16T05:30:49;99.70;;;67.57;;
60665;SDS011;59128;44.642;21.188;2022-10-16T05:33:15;69.35;;;43.42;;
60665;SDS011;59128;44.642;21.188;2022-10-16T05:35:42;18.05;;;13.25;;
60665;SDS011;59128;44.642;21.188;2022-10-16T05:38:08;19.70;;;11.98;;
60665;SDS011;59128;44.642;21.188;2022-10-16T05:40:35;25.65;;;14.65;;
60665;SDS011;59128;44.642;21.188;2022-10-16T05:43:01;19.30;;;12.20;;
60665;SDS011;59128;44.642;21.188;2022-10-16T05:45:27;17.95;;;9.98;;
60665;SDS011;59128;44.642;21.188;2022-10-16T05:47:53;16.80;;;10.45;;
60665;SDS011;59128;44.642;21.188;2022-10-16T05:50:19;23.35;;;12.45;;
60665;SDS011;59128;44.642;21.188;2022-10-16T05:52:45;13.68;;;8.10;;
60665;SDS011;59128;44.642;21.188;2022-10-16T05:55:11;16.33;;;9.73;;
60665;SDS011;59128;44.642;21.188;2022-10-16T05:57:37;7.80;;;5.95;;
60665;SDS011;59128;44.642;21.188;2022-10-16T06:00:03;10.18;;;6.05;;
60665;SDS011;59128;44.642;21.188;2022-10-16T06:02:30;11.73;;;7.72;;
60665;SDS011;59128;44.642;21.188;2022-10-16T06:04:56;11.75;;;7.90;;
60665;SDS011;59128;44.642;21.188;2022-10-16T06:07:22;10.07;;;7.18;;
60665;SDS011;59128;44.642;21.188;2022-10-16T06:09:49;7.85;;;6.10;;
60665;SDS011;59128;44.642;21.188;2022-10-16T06:12:15;8.23;;;6.13;;
60665;SDS011;59128;44.642;21.188;2022-10-16T06:14:41;9.10;;;6.68;;
60665;SDS011;59128;44.642;21.188;2022-10-16T06:17:07;19.50;;;5.80;;
60665;SDS011;59128;44.642;21.188;2022-10-16T06:19:33;8.68;;;5.85;;
60665;SDS011;59128;44.642;21.188;2022-10-16T06:21:59;6.78;;;5.18;;
60665;SDS011;59128;44.642;21.188;2022-10-16T06:24:27;10.52;;;6.45;;
60665;SDS011;59128;44.642;21.188;2022-10-16T06:26:53;6.93;;;5.22;;
60665;SDS011;59128;44.642;21.188;2022-10-16T06:29:19;7.78;;;5.05;;
60665;SDS011;59128;44.642;21.188;2022-10-16T06:31:45;6.30;;;4.45;;
60665;SDS011;59128;44.642;21.188;2022-10-16T06:34:11;7.45;;;4.78;;
60665;SDS011;59128;44.642;21.188;2022-10-16T06:36:38;7.38;;;5.72;;
60665;SDS011;59128;44.642;21.188;2022-10-16T06:39:04;7.55;;;4.90;;
60665;SDS011;59128;44.642;21.188;2022-10-16T06:41:32;11.65;;;7.18;;
60665;SDS011;59128;44.642;21.188;2022-10-16T06:43:59;7.05;;;4.80;;
60665;SDS011;59128;44.642;21.188;2022-10-16T06:46:25;9.23;;;5.93;;
60665;SDS011;59128;44.642;21.188;2022-10-16T06:48:52;7.38;;;3.90;;
60665;SDS011;59128;44.642;21.188;2022-10-16T06:51:19;6.38;;;4.97;;
60665;SDS011;59128;44.642;21.188;2022-10-16T06:53:47;5.78;;;4.78;;
60665;SDS011;59128;44.642;21.188;2022-10-16T06:58:45;7.95;;;5.45;;
60665;SDS011;59128;44.642;21.188;2022-10-16T07:01:11;7.65;;;4.90;;
60665;SDS011;59128;44.642;21.188;2022-10-16T07:03:38;6.32;;;5.47;;
60665;SDS011;59128;44.642;21.188;2022-10-16T07:06:05;7.35;;;5.60;;
60665;SDS011;59128;44.642;21.188;2022-10-16T07:08:32;5.10;;;4.60;;
60665;SDS011;59128;44.642;21.188;2022-10-16T07:10:59;5.22;;;4.50;;
60665;SDS011;59128;44.642;21.188;2022-10-16T07:13:25;6.35;;;4.13;;
60665;SDS011;59128;44.642;21.188;2022-10-16T07:15:51;7.63;;;6.18;;
60665;SDS011;59128;44.642;21.188;2022-10-16T07:18:17;7.43;;;4.20;;
60665;SDS011;59128;44.642;21.188;2022-10-16T07:20:43;5.25;;;4.35;;
60665;SDS011;59128;44.642;21.188;2022-10-16T07:23:09;8.48;;;4.07;;
60665;SDS011;59128;44.642;21.188;2022-10-16T07:25:35;5.82;;;4.70;;
60665;SDS011;59128;44.642;21.188;2022-10-16T07:28:02;6.88;;;4.30;;
60665;SDS011;59128;44.642;21.188;2022-10-16T07:30:28;4.78;;;4.20;;
60665;SDS011;59128;44.642;21.188;2022-10-16T07:32:54;5.90;;;4.43;;
60665;SDS011;59128;44.642;21.188;2022-10-16T07:35:20;6.43;;;4.20;;
60665;SDS011;59128;44.642;21.188;2022-10-16T07:37:46;6.63;;;4.38;;
60665;SDS011;59128;44.642;21.188;2022-10-16T07:40:12;6.95;;;4.60;;
60665;SDS011;59128;44.642;21.188;2022-10-16T07:42:38;6.88;;;4.60;;
60665;SDS011;59128;44.642;21.188;2022-10-16T07:45:05;5.13;;;4.40;;
60665;SDS011;59128;44.642;21.188;2022-10-16T07:47:31;7.43;;;3.72;;
60665;SDS011;59128;44.642;21.188;2022-10-16T07:49:57;6.72;;;4.68;;
60665;SDS011;59128;44.642;21.188;2022-10-16T07:52:23;5.15;;;3.83;;
60665;SDS011;59128;44.642;21.188;2022-10-16T07:54:49;8.13;;;4.05;;
60665;SDS011;59128;44.642;21.188;2022-10-16T07:57:15;6.38;;;4.22;;
60665;SDS011;59128;44.642;21.188;2022-10-16T07:59:44;5.80;;;4.60;;
60665;SDS011;59128;44.642;21.188;2022-10-16T08:02:11;6.95;;;4.32;;
60665;SDS011;59128;44.642;21.188;2022-10-16T08:04:37;6.40;;;4.07;;
60665;SDS011;59128;44.642;21.188;2022-10-16T08:07:03;5.70;;;3.88;;
60665;SDS011;59128;44.642;21.188;2022-10-16T08:09:29;3.60;;;3.30;;
60665;SDS011;59128;44.642;21.188;2022-10-16T08:11:55;4.03;;;3.30;;
60665;SDS011;59128;44.642;21.188;2022-10-16T08:14:21;7.82;;;3.88;;
60665;SDS011;59128;44.642;21.188;2022-10-16T08:16:47;5.40;;;3.63;;
60665;SDS011;59128;44.642;21.188;2022-10-16T08:19:13;4.07;;;3.15;;
60665;SDS011;59128;44.642;21.188;2022-10-16T08:21:40;5.15;;;3.28;;
60665;SDS011;59128;44.642;21.188;2022-10-16T08:24:06;5.07;;;3.47;;
60665;SDS011;59128;44.642;21.188;2022-10-16T08:26:33;5.22;;;3.30;;
60665;SDS011;59128;44.642;21.188;2022-10-16T08:28:59;4.95;;;3.50;;
60665;SDS011;59128;44.642;21.188;2022-10-16T08:31:25;5.25;;;3.97;;
60665;SDS011;59128;44.642;21.188;2022-10-16T08:33:52;7.10;;;4.82;;
60665;SDS011;59128;44.642;21.188;2022-10-16T08:36:18;4.72;;;3.53;;
60665;SDS011;59128;44.642;21.188;2022-10-16T08:38:46;4.68;;;3.50;;
60665;SDS011;59128;44.642;21.188;2022-10-16T08:41:25;5.90;;;3.50;;
60665;SDS011;59128;44.642;21.188;2022-10-16T08:47:08;4.28;;;3.88;;
60665;SDS011;59128;44.642;21.188;2022-10-16T08:49:27;5.40;;;4.55;;
60665;SDS011;59128;44.642;21.188;2022-10-16T08:51:53;4.40;;;3.70;;
60665;SDS011;59128;44.642;21.188;2022-10-16T08:54:37;4.35;;;3.80;;
60665;SDS011;59128;44.642;21.188;2022-10-16T08:57:20;6.53;;;3.97;;
60665;SDS011;59128;44.642;21.188;2022-10-16T08:59:46;4.00;;;3.45;;
60665;SDS011;59128;44.642;21.188;2022-10-16T09:13:08;5.70;;;3.40;;
60665;SDS011;59128;44.642;21.188;2022-10-16T09:15:39;13.98;;;7.38;;
60665;SDS011;59128;44.642;21.188;2022-10-16T09:18:30;11.95;;;7.18;;
60665;SDS011;59128;44.642;21.188;2022-10-16T09:23:34;4.35;;;3.25;;
60665;SDS011;59128;44.642;21.188;2022-10-16T09:26:00;5.40;;;3.35;;
60665;SDS011;59128;44.642;21.188;2022-10-16T09:28:27;5.65;;;3.60;;
60665;SDS011;59128;44.642;21.188;2022-10-16T09:30:53;3.85;;;3.35;;
60665;SDS011;59128;44.642;21.188;2022-10-16T09:33:20;6.88;;;4.68;;
60665;SDS011;59128;44.642;21.188;2022-10-16T09:35:51;4.50;;;4.00;;
60665;SDS011;59128;44.642;21.188;2022-10-16T09:38:29;6.53;;;3.60;;
60665;SDS011;59128;44.642;21.188;2022-10-16T09:40:56;4.78;;;3.78;;
60665;SDS011;59128;44.642;21.188;2022-10-16T09:43:26;4.60;;;3.55;;
60665;SDS011;59128;44.642;21.188;2022-10-16T09:48:21;3.08;;;2.80;;
60665;SDS011;59128;44.642;21.188;2022-10-16T09:51:01;7.05;;;3.65;;
60665;SDS011;59128;44.642;21.188;2022-10-16T09:53:39;3.92;;;3.42;;
60665;SDS011;59128;44.642;21.188;2022-10-16T09:56:05;6.45;;;5.10;;
60665;SDS011;59128;44.642;21.188;2022-10-16T09:58:32;4.35;;;3.95;;
60665;SDS011;59128;44.642;21.188;2022-10-16T10:00:58;4.22;;;3.72;;
60665;SDS011;59128;44.642;21.188;2022-10-16T10:03:38;8.52;;;3.83;;
60665;SDS011;59128;44.642;21.188;2022-10-16T10:06:18;5.90;;;3.83;;
60665;SDS011;59128;44.642;21.188;2022-10-16T10:09:02;8.00;;;5.03;;
60665;SDS011;59128;44.642;21.188;2022-10-16T10:14:03;9.32;;;4.20;;
60665;SDS011;59128;44.642;21.188;2022-10-16T10:16:29;6.03;;;3.63;;
60665;SDS011;59128;44.642;21.188;2022-10-16T10:18:59;6.88;;;4.53;;
60665;SDS011;59128;44.642;21.188;2022-10-16T10:21:25;7.28;;;4.75;;
60665;SDS011;59128;44.642;21.188;2022-10-16T10:23:57;6.25;;;3.50;;
60665;SDS011;59128;44.642;21.188;2022-10-16T10:26:24;4.07;;;3.27;;
60665;SDS011;59128;44.642;21.188;2022-10-16T10:31:39;8.57;;;5.53;;
60665;SDS011;59128;44.642;21.188;2022-10-16T10:36:40;5.38;;;3.47;;
60665;SDS011;59128;44.642;21.188;2022-10-16T10:44:34;5.10;;;3.35;;
60665;SDS011;59128;44.642;21.188;2022-10-16T10:47:26;5.57;;;3.70;;
60665;SDS011;59128;44.642;21.188;2022-10-16T10:58:05;5.07;;;4.10;;
60665;SDS011;59128;44.642;21.188;2022-10-16T11:03:27;4.68;;;4.25;;
60665;SDS011;59128;44.642;21.188;2022-10-16T11:05:50;6.88;;;4.40;;
60665;SDS011;59128;44.642;21.188;2022-10-16T11:11:04;4.97;;;3.47;;
60665;SDS011;59128;44.642;21.188;2022-10-16T11:13:36;4.18;;;3.33;;
60665;SDS011;59128;44.642;21.188;2022-10-16T11:18:58;4.88;;;3.72;;
60665;SDS011;59128;44.642;21.188;2022-10-16T11:21:29;4.25;;;3.85;;
60665;SDS011;59128;44.642;21.188;2022-10-16T11:26:26;6.82;;;5.25;;
60665;SDS011;59128;44.642;21.188;2022-10-16T11:28:54;5.22;;;4.05;;
60665;SDS011;59128;44.642;21.188;2022-10-16T11:36:25;6.72;;;4.10;;
60665;SDS011;59128;44.642;21.188;2022-10-16T11:38:53;7.20;;;4.88;;
60665;SDS011;59128;44.642;21.188;2022-10-16T11:41:27;6.00;;;4.07;;
60665;SDS011;59128;44.642;21.188;2022-10-16T11:46:21;14.88;;;11.48;;
60665;SDS011;59128;44.642;21.188;2022-10-16T11:56:45;3.53;;;3.22;;
60665;SDS011;59128;44.642;21.188;2022-10-16T11:59:27;8.70;;;3.63;;
60665;SDS011;59128;44.642;21.188;2022-10-16T12:01:58;8.48;;;5.60;;
60665;SDS011;59128;44.642;21.188;2022-10-16T12:04:30;9.40;;;7.18;;
60665;SDS011;59128;44.642;21.188;2022-10-16T12:07:08;11.75;;;9.13;;
60665;SDS011;59128;44.642;21.188;2022-10-16T12:09:38;8.65;;;6.30;;
60665;SDS011;59128;44.642;21.188;2022-10-16T12:12:04;7.03;;;4.85;;
60665;SDS011;59128;44.642;21.188;2022-10-16T12:14:35;15.27;;;12.15;;
60665;SDS011;59128;44.642;21.188;2022-10-16T12:17:04;12.02;;;9.32;;
60665;SDS011;59128;44.642;21.188;2022-10-16T12:19:58;5.65;;;4.13;;
60665;SDS011;59128;44.642;21.188;2022-10-16T12:22:24;7.75;;;4.80;;
60665;SDS011;59128;44.642;21.188;2022-10-16T12:24:53;9.85;;;7.43;;
60665;SDS011;59128;44.642;21.188;2022-10-16T12:29:54;9.63;;;6.38;;
60665;SDS011;59128;44.642;21.188;2022-10-16T12:34:56;6.10;;;5.47;;
60665;SDS011;59128;44.642;21.188;2022-10-16T12:37:23;5.80;;;4.50;;
60665;SDS011;59128;44.642;21.188;2022-10-16T12:39:51;7.15;;;5.32;;
60665;SDS011;59128;44.642;21.188;2022-10-16T12:42:22;9.93;;;7.30;;
60665;SDS011;59128;44.642;21.188;2022-10-16T12:44:49;11.63;;;8.32;;
60665;SDS011;59128;44.642;21.188;2022-10-16T12:49:56;12.55;;;9.15;;
60665;SDS011;59128;44.642;21.188;2022-10-16T12:52:35;8.48;;;6.32;;
60665;SDS011;59128;44.642;21.188;2022-10-16T12:55:03;12.13;;;7.57;;
60665;SDS011;59128;44.642;21.188;2022-10-16T13:08:09;11.50;;;8.65;;
60665;SDS011;59128;44.642;21.188;2022-10-16T13:15:35;7.72;;;4.20;;
60665;SDS011;59128;44.642;21.188;2022-10-16T13:18:16;6.70;;;5.50;;
60665;SDS011;59128;44.642;21.188;2022-10-16T13:20:53;7.88;;;5.43;;
60665;SDS011;59128;44.642;21.188;2022-10-16T13:23:29;5.78;;;4.50;;
60665;SDS011;59128;44.642;21.188;2022-10-16T13:28:31;8.60;;;6.82;;
60665;SDS011;59128;44.642;21.188;2022-10-16T13:30:58;5.85;;;4.85;;
60665;SDS011;59128;44.642;21.188;2022-10-16T13:35:55;8.70;;;6.60;;
60665;SDS011;59128;44.642;21.188;2022-10-16T13:38:22;36.13;;;27.88;;
60665;SDS011;59128;44.642;21.188;2022-10-16T13:40:59;8.35;;;6.50;;
60665;SDS011;59128;44.642;21.188;2022-10-16T13:43:31;14.10;;;10.70;;
60665;SDS011;59128;44.642;21.188;2022-10-16T13:46:02;6.63;;;4.50;;
60665;SDS011;59128;44.642;21.188;2022-10-16T13:48:29;8.65;;;7.38;;
60665;SDS011;59128;44.642;21.188;2022-10-16T13:50:59;6.75;;;4.50;;
60665;SDS011;59128;44.642;21.188;2022-10-16T13:53:25;12.98;;;9.20;;
60665;SDS011;59128;44.642;21.188;2022-10-16T13:55:51;6.63;;;4.93;;
60665;SDS011;59128;44.642;21.188;2022-10-16T13:58:17;9.50;;;6.97;;
60665;SDS011;59128;44.642;21.188;2022-10-16T14:00:57;6.80;;;3.80;;
60665;SDS011;59128;44.642;21.188;2022-10-16T14:03:24;11.65;;;6.25;;
60665;SDS011;59128;44.642;21.188;2022-10-16T14:06:24;6.40;;;5.07;;
60665;SDS011;59128;44.642;21.188;2022-10-16T14:08:44;5.82;;;4.20;;
60665;SDS011;59128;44.642;21.188;2022-10-16T14:11:11;12.82;;;9.60;;
60665;SDS011;59128;44.642;21.188;2022-10-16T14:13:44;16.42;;;13.73;;
60665;SDS011;59128;44.642;21.188;2022-10-16T14:16:15;10.52;;;9.18;;
60665;SDS011;59128;44.642;21.188;2022-10-16T14:18:44;17.63;;;13.35;;
60665;SDS011;59128;44.642;21.188;2022-10-16T14:21:12;8.02;;;6.13;;
60665;SDS011;59128;44.642;21.188;2022-10-16T14:23:40;9.07;;;4.82;;
60665;SDS011;59128;44.642;21.188;2022-10-16T14:26:28;9.15;;;7.28;;
60665;SDS011;59128;44.642;21.188;2022-10-16T14:31:37;9.15;;;6.93;;
60665;SDS011;59128;44.642;21.188;2022-10-16T14:34:05;9.80;;;6.55;;
60665;SDS011;59128;44.642;21.188;2022-10-16T14:36:49;9.90;;;6.28;;
60665;SDS011;59128;44.642;21.188;2022-10-16T14:39:19;6.15;;;4.85;;
60665;SDS011;59128;44.642;21.188;2022-10-16T14:41:50;10.45;;;6.13;;
60665;SDS011;59128;44.642;21.188;2022-10-16T14:44:17;8.38;;;6.13;;
60665;SDS011;59128;44.642;21.188;2022-10-16T14:46:44;20.13;;;13.00;;
60665;SDS011;59128;44.642;21.188;2022-10-16T14:51:40;5.60;;;4.50;;
60665;SDS011;59128;44.642;21.188;2022-10-16T14:54:09;19.58;;;12.65;;
60665;SDS011;59128;44.642;21.188;2022-10-16T14:56:54;7.20;;;4.80;;
60665;SDS011;59128;44.642;21.188;2022-10-16T14:59:37;12.75;;;8.18;;
60665;SDS011;59128;44.642;21.188;2022-10-16T15:07:15;19.45;;;14.07;;
60665;SDS011;59128;44.642;21.188;2022-10-16T15:09:41;15.13;;;11.15;;
60665;SDS011;59128;44.642;21.188;2022-10-16T15:12:07;13.23;;;8.18;;
60665;SDS011;59128;44.642;21.188;2022-10-16T15:14:33;9.38;;;7.78;;
60665;SDS011;59128;44.642;21.188;2022-10-16T15:16:59;14.52;;;10.43;;
60665;SDS011;59128;44.642;21.188;2022-10-16T15:19:25;13.70;;;10.95;;
60665;SDS011;59128;44.642;21.188;2022-10-16T15:21:51;12.05;;;9.35;;
60665;SDS011;59128;44.642;21.188;2022-10-16T15:24:17;8.48;;;6.50;;
60665;SDS011;59128;44.642;21.188;2022-10-16T15:26:43;9.75;;;7.55;;
60665;SDS011;59128;44.642;21.188;2022-10-16T15:29:12;9.18;;;6.90;;
60665;SDS011;59128;44.642;21.188;2022-10-16T15:31:39;9.88;;;6.63;;
60665;SDS011;59128;44.642;21.188;2022-10-16T15:34:08;13.57;;;10.27;;
60665;SDS011;59128;44.642;21.188;2022-10-16T15:36:35;24.35;;;16.15;;
60665;SDS011;59128;44.642;21.188;2022-10-16T15:39:18;36.85;;;21.92;;
60665;SDS011;59128;44.642;21.188;2022-10-16T15:41:44;19.65;;;14.98;;
60665;SDS011;59128;44.642;21.188;2022-10-16T15:44:15;13.10;;;10.25;;
60665;SDS011;59128;44.642;21.188;2022-10-16T15:46:41;13.57;;;9.80;;
60665;SDS011;59128;44.642;21.188;2022-10-16T15:49:07;13.35;;;9.25;;
60665;SDS011;59128;44.642;21.188;2022-10-16T15:51:34;15.73;;;10.30;;
60665;SDS011;59128;44.642;21.188;2022-10-16T15:54:03;15.00;;;9.20;;
60665;SDS011;59128;44.642;21.188;2022-10-16T15:56:29;26.92;;;13.80;;
60665;SDS011;59128;44.642;21.188;2022-10-16T15:58:58;28.30;;;18.85;;
60665;SDS011;59128;44.642;21.188;2022-10-16T16:01:24;30.45;;;24.42;;
60665;SDS011;59128;44.642;21.188;2022-10-16T16:03:54;401.02;;;260.50;;
60665;SDS011;59128;44.642;21.188;2022-10-16T16:06:20;269.55;;;195.80;;
60665;SDS011;59128;44.642;21.188;2022-10-16T16:08:47;150.63;;;109.93;;
60665;SDS011;59128;44.642;21.188;2022-10-16T16:11:13;192.60;;;146.07;;
60665;SDS011;59128;44.642;21.188;2022-10-16T16:13:40;66.32;;;53.13;;
60665;SDS011;59128;44.642;21.188;2022-10-16T16:16:10;72.20;;;61.90;;
60665;SDS011;59128;44.642;21.188;2022-10-16T16:18:37;114.28;;;73.13;;
60665;SDS011;59128;44.642;21.188;2022-10-16T16:21:03;72.18;;;43.25;;
60665;SDS011;59128;44.642;21.188;2022-10-16T16:23:29;63.83;;;38.15;;
60665;SDS011;59128;44.642;21.188;2022-10-16T16:26:03;58.25;;;35.45;;
60665;SDS011;59128;44.642;21.188;2022-10-16T16:28:29;67.05;;;39.50;;
60665;SDS011;59128;44.642;21.188;2022-10-16T16:30:55;96.85;;;53.50;;
60665;SDS011;59128;44.642;21.188;2022-10-16T16:33:21;55.75;;;32.35;;
60665;SDS011;59128;44.642;21.188;2022-10-16T16:35:47;81.25;;;43.85;;
60665;SDS011;59128;44.642;21.188;2022-10-16T16:38:13;55.38;;;31.00;;